Markham, Canada
Current Conditions -  °F | °C
As of 12:00 PM on Wednesday 26 Nov 2014 (Local Time) from CYKZ Reporting Station
Overcast Overcast  
Wind Chill: 29°   Ceiling: 3400
Heat Index: 34°   Visibility: 15mi
Dew Point: 23°   Wind: 6mph
Humidity: 65%   Direction: 70°ENE
Pressure: 30.16"   Gusts: NA
Location:  43.86°N, 79.34°W
Report Text: CYKZ 261700Z 07005KT 15SM FEW025 OVC034 01/M05 A3016 RMK CF1SC7SLP222
Loading
Personal Weather Stations






























Interactive Weather Map New forecast layout! Learn more

10-Day Weather Forecast

Advertisements
Track Severe Weather on mobile